Alyeska Resort
Max's Hourly Weather Roundup
ALYESKA_MAX 2/10/2016
Click Here for Graph

        DATE  TIME   Air  Wind  Wind  Wind  BATT   Rel
                    Temp   Spd   Dir  Gust  Volt  Hum%
                      F   MPH   AVG   MPH   AVG   AVG

   2/10/2016 18:00    30    10   119    37 13.11    98
   2/10/2016 17:00    30     3   188    11 13.40   100
   2/10/2016 16:00    30     5   119    17 13.92   100
   2/10/2016 15:00    30     5   180    23 13.80   100
   2/10/2016 14:00    30     4   163    18 13.88    97
   2/10/2016 13:00    30     3   168    13 13.84    97
   2/10/2016 12:00    30     6   143    21 13.75    93
   2/10/2016 11:00    29    11    74    28 13.37    88
   2/10/2016 10:00    29    13    88    26 12.89    78
   2/10/2016 09:00    30    16    77    28 12.86    65
   2/10/2016 08:00    30    11   154    28 12.87    56
   2/10/2016 07:00    31     5   177    17 12.88    44
   2/10/2016 06:00    32     7    82    24 12.88    41
   2/10/2016 05:00    32     8    89    19 12.89    39
   2/10/2016 04:00    32    16    41    26 12.90    40
   2/10/2016 03:00    30    14    39    22 12.91    46
   2/10/2016 02:00    29    12    61    23 12.92    51
   2/10/2016 01:00    28    13   112    30 12.93    55
    2/9/2016 24:00    29     5   140    16 12.94    53
    2/9/2016 23:00    29     8   145    14 12.96    52
    2/9/2016 22:00    29     8   153    13 12.97    57
    2/9/2016 21:00    28     6   151    12 12.99    65
    2/9/2016 20:00    27     4   185     9 13.02    78
    2/9/2016 19:00    27     7    29    11 13.07    74


Click Here for Graph